createdAt,value
2018-11-29T00:01:09.969Z,20.57
2018-11-29T00:03:39.645Z,19.60
2018-11-29T00:06:25.072Z,19.30
2018-11-29T00:08:54.732Z,18.90
2018-11-29T00:11:24.377Z,18.27
2018-11-29T00:13:54.042Z,19.40
2018-11-29T00:16:23.698Z,19.63
2018-11-29T00:18:53.370Z,19.33
2018-11-29T00:21:23.017Z,19.33
2018-11-29T00:23:52.673Z,19.27
2018-11-29T00:26:22.321Z,18.67
2018-11-29T00:28:51.985Z,18.17
2018-11-29T00:31:21.645Z,19.27
2018-11-29T00:33:51.309Z,18.53
2018-11-29T00:36:20.960Z,18.33
2018-11-29T00:38:50.645Z,18.57
2018-11-29T00:41:20.310Z,18.80
2018-11-29T00:43:49.986Z,19.83
2018-11-29T00:46:19.646Z,19.23
2018-11-29T00:48:49.322Z,18.27
2018-11-29T00:51:18.981Z,18.73
2018-11-29T00:53:48.667Z,19.40
2018-11-29T00:56:18.399Z,19.13
2018-11-29T00:58:48.069Z,19.17
2018-11-29T01:01:17.730Z,19.47
2018-11-29T01:03:47.411Z,20.00
2018-11-29T01:06:17.160Z,19.77
2018-11-29T01:08:46.825Z,19.60
2018-11-29T01:11:16.511Z,19.63
2018-11-29T01:13:46.185Z,20.30
2018-11-29T01:16:15.853Z,19.70
2018-11-29T01:18:45.648Z,19.60
2018-11-29T01:21:15.319Z,19.30
2018-11-29T01:23:45.001Z,20.07
2018-11-29T01:26:14.685Z,19.33
2018-11-29T01:28:44.503Z,18.67
2018-11-29T01:31:14.185Z,19.73
2018-11-29T01:33:43.869Z,19.90
2018-11-29T01:36:13.549Z,20.03
2018-11-29T01:38:43.217Z,19.57
2018-11-29T01:41:12.893Z,20.00
2018-11-29T01:43:42.573Z,19.00
2018-11-29T01:46:12.254Z,19.40
2018-11-29T01:48:41.929Z,19.13
2018-11-29T01:51:11.617Z,19.93
2018-11-29T01:53:41.301Z,19.87
2018-11-29T01:56:10.980Z,19.50
2018-11-29T01:58:40.646Z,18.60
2018-11-29T02:01:10.388Z,19.80
2018-11-29T02:03:40.057Z,19.37
2018-11-29T02:06:09.738Z,19.07
2018-11-29T02:08:39.415Z,20.27
2018-11-29T02:11:09.099Z,19.43
2018-11-29T02:13:38.782Z,18.60
2018-11-29T02:16:08.465Z,18.67
2018-11-29T02:18:38.213Z,19.83
2018-11-29T02:21:08.120Z,19.33
2018-11-29T02:23:37.805Z,18.63
2018-11-29T02:26:07.489Z,18.90
2018-11-29T02:28:37.161Z,18.77
2018-11-29T02:31:06.849Z,18.23
2018-11-29T02:33:36.556Z,19.97
2018-11-29T02:36:06.438Z,19.53
2018-11-29T02:38:36.488Z,19.00
2018-11-29T02:41:06.666Z,19.50
2018-11-29T02:43:36.369Z,19.27
2018-11-29T02:46:06.209Z,20.07
2018-11-29T02:48:36.037Z,19.77
2018-11-29T02:51:05.905Z,19.20
2018-11-29T02:53:35.592Z,18.60
2018-11-29T02:56:05.266Z,17.97
2018-11-29T02:58:35.057Z,18.37
2018-11-29T03:01:04.773Z,18.00
2018-11-29T03:03:34.491Z,18.87
2018-11-29T03:06:04.173Z,19.40
2018-11-29T03:08:33.857Z,18.50
2018-11-29T03:11:03.537Z,19.07
2018-11-29T03:13:33.259Z,19.10
2018-11-29T03:16:02.929Z,19.20
2018-11-29T03:18:32.623Z,19.00
2018-11-29T03:21:02.284Z,17.67
2018-11-29T03:23:31.966Z,18.40
2018-11-29T03:26:01.657Z,18.43
2018-11-29T03:28:31.322Z,18.57
2018-11-29T03:31:00.999Z,18.27
2018-11-29T03:33:30.669Z,18.33
2018-11-29T03:36:00.362Z,18.77
2018-11-29T03:38:30.151Z,19.17
2018-11-29T03:40:59.837Z,18.03
2018-11-29T03:43:29.793Z,18.27
2018-11-29T03:45:59.474Z,17.80
2018-11-29T03:48:29.238Z,17.67
2018-11-29T03:50:58.915Z,17.87
2018-11-29T03:53:28.683Z,16.50
2018-11-29T03:55:58.362Z,18.03
2018-11-29T03:58:28.068Z,17.27
2018-11-29T04:00:57.751Z,17.50
2018-11-29T04:03:27.604Z,16.67
2018-11-29T04:05:57.349Z,16.87
2018-11-29T04:08:27.033Z,16.30
2018-11-29T04:10:56.741Z,17.90
2018-11-29T04:13:26.435Z,17.53
2018-11-29T04:15:56.244Z,17.57
2018-11-29T04:18:25.951Z,18.03
2018-11-29T04:20:55.616Z,18.60
2018-11-29T04:23:25.290Z,17.13
2018-11-29T04:25:55.221Z,18.03
2018-11-29T04:28:24.673Z,18.63
2018-11-29T04:30:54.344Z,19.17
2018-11-29T04:33:24.009Z,17.17
2018-11-29T04:35:53.697Z,19.30
2018-11-29T04:38:23.369Z,18.93
2018-11-29T04:40:53.281Z,19.17
2018-11-29T04:43:22.960Z,18.43
2018-11-29T04:46:03.933Z,19.60
2018-11-29T04:48:33.741Z,19.83
2018-11-29T04:51:03.427Z,18.57
2018-11-29T04:53:33.177Z,18.47
2018-11-29T04:56:02.857Z,18.57
2018-11-29T04:58:32.522Z,19.47
2018-11-29T05:01:02.211Z,18.03
2018-11-29T05:03:32.022Z,18.30
2018-11-29T05:06:01.707Z,18.70
2018-11-29T05:08:31.374Z,18.53
2018-11-29T05:11:02.125Z,18.87
2018-11-29T05:13:31.966Z,18.70
2018-11-29T05:16:01.646Z,19.33
2018-11-29T05:18:32.444Z,18.70
2018-11-29T05:21:01.105Z,18.97
2018-11-29T05:23:30.936Z,18.80
2018-11-29T05:26:00.613Z,18.00
2018-11-29T05:28:30.284Z,18.57
2018-11-29T05:31:00.013Z,18.63
2018-11-29T05:33:30.153Z,18.20
2018-11-29T05:35:59.841Z,18.17
2018-11-29T05:38:29.511Z,17.77
2018-11-29T05:40:59.221Z,16.97
2018-11-29T05:43:28.893Z,18.20
2018-11-29T05:45:58.574Z,16.53
2018-11-29T05:48:28.244Z,16.57
2018-11-29T05:50:58.072Z,15.50
2018-11-29T05:53:27.701Z,15.10
2018-11-29T05:55:57.442Z,16.17
2018-11-29T05:58:27.105Z,16.03
2018-11-29T06:00:57.690Z,15.57
2018-11-29T06:03:27.356Z,15.83
2018-11-29T06:05:57.036Z,17.37
2018-11-29T06:08:26.710Z,17.80
2018-11-29T06:10:56.814Z,18.20
2018-11-29T06:13:26.476Z,16.77
2018-11-29T06:15:56.229Z,17.50
2018-11-29T06:18:25.906Z,15.97
2018-11-29T06:20:55.609Z,17.53
2018-11-29T06:23:25.297Z,17.43
2018-11-29T06:25:55.010Z,18.73
2018-11-29T06:28:24.677Z,18.27
2018-11-29T06:30:54.360Z,17.90
2018-11-29T06:33:24.029Z,17.77
2018-11-29T06:35:53.960Z,17.17
2018-11-29T06:38:23.645Z,17.47
2018-11-29T06:40:53.314Z,17.57
2018-11-29T06:43:22.997Z,17.13
2018-11-29T06:45:52.665Z,17.57
2018-11-29T06:48:22.345Z,16.70
2018-11-29T06:50:52.020Z,17.13
2018-11-29T06:53:26.937Z,16.63
2018-11-29T06:55:56.697Z,17.00
2018-11-29T06:58:26.426Z,16.67
2018-11-29T07:00:56.085Z,17.13
2018-11-29T07:03:28.854Z,15.87
2018-11-29T07:05:55.433Z,15.67
2018-11-29T07:08:25.118Z,15.97
2018-11-29T07:10:54.918Z,15.67
2018-11-29T07:13:24.693Z,15.50
2018-11-29T07:15:54.388Z,15.47
2018-11-29T07:18:24.101Z,15.10
2018-11-29T07:22:02.533Z,16.23
2018-11-29T07:24:32.204Z,16.80
2018-11-29T07:27:01.881Z,17.17
2018-11-29T07:29:31.554Z,17.80
2018-11-29T07:32:01.370Z,17.63
2018-11-29T07:34:31.037Z,17.97
2018-11-29T07:37:00.727Z,17.93
2018-11-29T07:39:30.397Z,17.53
2018-11-29T07:42:00.078Z,19.67
2018-11-29T07:44:29.756Z,18.40
2018-11-29T07:46:59.439Z,18.47
2018-11-29T07:49:29.121Z,18.70
2018-11-29T07:51:58.823Z,18.97
2018-11-29T07:54:28.490Z,19.93
2018-11-29T07:56:58.193Z,20.03
2018-11-29T07:59:27.869Z,20.27
2018-11-29T08:01:57.590Z,19.20
2018-11-29T08:04:27.262Z,19.63
2018-11-29T08:06:56.968Z,19.57
2018-11-29T08:09:26.647Z,19.73
2018-11-29T08:11:56.326Z,19.70
2018-11-29T08:14:26.011Z,19.97
2018-11-29T08:16:55.725Z,18.77
2018-11-29T08:19:25.434Z,19.63
2018-11-29T08:21:55.183Z,20.53
2018-11-29T08:24:24.850Z,19.00
2018-11-29T08:26:54.542Z,19.03
2018-11-29T08:29:24.219Z,19.33
2018-11-29T08:31:53.923Z,19.57
2018-11-29T08:34:23.630Z,19.30
2018-11-29T08:36:53.286Z,19.30
2018-11-29T08:39:22.961Z,18.87
2018-11-29T08:41:52.638Z,19.20
2018-11-29T08:44:22.324Z,18.57
2018-11-29T08:46:52.098Z,19.47
2018-11-29T08:49:21.780Z,19.33
2018-11-29T08:51:51.473Z,19.13
2018-11-29T08:54:21.158Z,24.63
2018-11-29T08:56:50.894Z,23.37
2018-11-29T08:59:20.570Z,23.00
2018-11-29T09:01:50.242Z,27.97
2018-11-29T09:04:19.925Z,29.30
2018-11-29T09:06:49.609Z,52.40
2018-11-29T09:09:19.285Z,35.20
2018-11-29T09:11:48.982Z,23.23
2018-11-29T09:14:18.758Z,21.90
2018-11-29T09:16:48.454Z,21.43
2018-11-29T09:19:18.125Z,20.37
2018-11-29T09:21:47.820Z,20.60
2018-11-29T09:24:17.493Z,20.27
2018-11-29T09:26:47.170Z,19.97
2018-11-29T09:29:16.843Z,19.97
2018-11-29T09:31:46.514Z,19.90
2018-11-29T09:34:16.198Z,20.33
2018-11-29T09:36:45.872Z,20.90
2018-11-29T09:39:15.572Z,20.40
2018-11-29T09:41:45.241Z,21.60
2018-11-29T09:44:14.921Z,21.10
2018-11-29T09:46:44.601Z,19.70
2018-11-29T09:49:14.284Z,20.77
2018-11-29T09:51:43.959Z,20.03
2018-11-29T09:54:13.647Z,19.83
2018-11-29T09:56:43.329Z,18.07
2018-11-29T09:59:13.021Z,16.23
2018-11-29T10:01:42.690Z,17.23
2018-11-29T10:04:12.389Z,15.57
2018-11-29T10:06:42.057Z,15.37
2018-11-29T10:09:11.755Z,17.50
2018-11-29T10:11:41.431Z,19.43
2018-11-29T10:14:11.119Z,19.83
2018-11-29T10:16:40.798Z,20.73
2018-11-29T10:19:10.560Z,20.03
2018-11-29T10:21:40.193Z,20.53
2018-11-29T10:24:09.889Z,20.30
2018-11-29T10:26:39.554Z,20.50
2018-11-29T10:29:09.249Z,21.03
2018-11-29T10:31:39.142Z,21.80
2018-11-29T10:34:08.831Z,21.77
2018-11-29T10:36:38.498Z,20.40
2018-11-29T10:39:08.729Z,20.07
2018-11-29T10:41:38.538Z,19.77
2018-11-29T10:44:08.238Z,19.33
2018-11-29T10:46:37.909Z,20.03
2018-11-29T10:49:07.582Z,19.47
2018-11-29T10:51:37.478Z,19.37
2018-11-29T10:54:07.154Z,18.83
2018-11-29T10:56:36.893Z,17.67
2018-11-29T10:59:06.709Z,19.13
2018-11-29T11:01:49.545Z,20.50
2018-11-29T11:04:19.234Z,20.17
2018-11-29T11:06:48.910Z,20.83
2018-11-29T11:09:20.774Z,21.80
2018-11-29T11:11:50.448Z,20.47
2018-11-29T11:14:20.139Z,20.63
2018-11-29T11:16:49.817Z,20.63
2018-11-29T11:19:19.498Z,19.60
2018-11-29T11:21:49.163Z,21.10
2018-11-29T11:24:18.931Z,21.47
2018-11-29T11:26:48.509Z,20.83
2018-11-29T11:29:18.198Z,20.83
2018-11-29T11:31:47.861Z,21.97
2018-11-29T11:34:17.538Z,21.50
2018-11-29T11:36:47.217Z,21.33
2018-11-29T11:39:16.909Z,21.40
2018-11-29T11:41:46.589Z,20.77
2018-11-29T11:44:16.270Z,20.63
2018-11-29T11:46:45.952Z,20.20
2018-11-29T11:49:15.624Z,22.17
2018-11-29T11:51:45.388Z,20.17
2018-11-29T11:54:15.066Z,20.70
2018-11-29T11:56:44.729Z,20.33
2018-11-29T11:59:14.473Z,20.53
2018-11-29T12:01:44.157Z,22.67
2018-11-29T12:04:13.829Z,22.67
2018-11-29T12:06:43.506Z,22.97
2018-11-29T12:09:13.262Z,19.53
2018-11-29T12:11:42.931Z,19.77
2018-11-29T12:14:12.616Z,19.33
2018-11-29T12:16:42.290Z,20.60
2018-11-29T12:19:11.981Z,20.27
2018-11-29T12:21:41.661Z,21.37
2018-11-29T12:24:11.361Z,22.10
2018-11-29T12:26:41.029Z,21.17
2018-11-29T12:29:10.720Z,21.67
2018-11-29T12:31:40.534Z,21.23
2018-11-29T12:34:10.296Z,20.47
2018-11-29T12:36:39.966Z,21.37
2018-11-29T12:39:10.118Z,21.57
2018-11-29T12:41:39.906Z,20.37
2018-11-29T12:44:09.582Z,21.23
2018-11-29T12:46:39.258Z,20.87
2018-11-29T12:49:08.938Z,20.57
2018-11-29T12:51:38.621Z,20.63
2018-11-29T12:54:08.455Z,21.10
2018-11-29T12:56:38.147Z,20.97
2018-11-29T12:59:07.813Z,21.30
2018-11-29T13:01:37.484Z,21.37
2018-11-29T13:04:07.171Z,20.70
2018-11-29T13:06:36.882Z,21.63
2018-11-29T13:09:09.145Z,22.30
2018-11-29T13:11:38.913Z,22.20
2018-11-29T13:14:08.695Z,21.90
2018-11-29T13:16:38.286Z,20.20
2018-11-29T13:19:07.974Z,20.57
2018-11-29T13:21:37.665Z,21.80
2018-11-29T13:24:07.346Z,21.90
2018-11-29T13:26:37.044Z,21.50
2018-11-29T13:29:06.846Z,21.40
2018-11-29T13:31:36.522Z,21.40
2018-11-29T13:34:06.215Z,20.77
2018-11-29T13:36:35.881Z,23.00
2018-11-29T13:39:07.478Z,36.03
2018-11-29T13:41:37.739Z,27.00
2018-11-29T13:44:07.495Z,22.00
2018-11-29T13:46:37.287Z,21.57
2018-11-29T13:49:06.902Z,21.97
2018-11-29T13:51:36.595Z,21.40
2018-11-29T13:54:06.561Z,21.40
2018-11-29T13:56:36.234Z,21.17
2018-11-29T13:59:05.999Z,21.80
2018-11-29T14:01:35.637Z,21.07
2018-11-29T14:04:05.829Z,21.73
2018-11-29T14:06:35.588Z,20.37
2018-11-29T14:09:08.041Z,20.33
2018-11-29T14:11:37.718Z,20.87
2018-11-29T14:14:08.081Z,21.17
2018-11-29T14:16:37.061Z,21.83
2018-11-29T14:19:06.733Z,21.53
2018-11-29T14:21:36.402Z,24.83
2018-11-29T14:24:06.080Z,23.27
2018-11-29T14:26:35.768Z,20.80
2018-11-29T14:29:05.779Z,21.43
2018-11-29T14:31:35.465Z,20.77
2018-11-29T14:34:05.134Z,22.10
2018-11-29T14:36:34.829Z,28.33
2018-11-29T14:39:05.690Z,39.40
2018-11-29T14:41:35.337Z,26.03
2018-11-29T14:44:05.073Z,13.57
2018-11-29T14:46:34.777Z,11.60
2018-11-29T14:49:04.479Z,11.53
2018-11-29T14:51:34.240Z,17.87
2018-11-29T14:54:03.842Z,19.50
2018-11-29T14:56:33.538Z,20.63
2018-11-29T14:59:03.299Z,19.40
2018-11-29T15:01:33.014Z,19.47
2018-11-29T15:04:02.677Z,20.40
2018-11-29T15:06:33.078Z,19.83
2018-11-29T15:09:02.845Z,18.17
2018-11-29T15:11:33.034Z,18.27
2018-11-29T15:14:02.728Z,18.50
2018-11-29T15:16:32.596Z,22.73
2018-11-29T15:19:02.258Z,19.63
2018-11-29T15:21:31.941Z,19.77
2018-11-29T15:24:01.619Z,27.97
2018-11-29T15:26:31.382Z,36.90
2018-11-29T15:29:01.044Z,59.13
2018-11-29T15:31:30.722Z,29.17
2018-11-29T15:34:00.417Z,18.67
2018-11-29T15:36:30.094Z,12.73
2018-11-29T15:38:59.846Z,9.50
2018-11-29T15:41:29.521Z,8.70
2018-11-29T15:43:59.204Z,7.60
2018-11-29T15:46:28.865Z,7.70
2018-11-29T15:48:58.529Z,7.77
2018-11-29T15:51:28.193Z,7.90
2018-11-29T15:53:57.867Z,13.60
2018-11-29T15:56:27.551Z,20.10
2018-11-29T15:58:57.225Z,8.83
2018-11-29T16:01:26.886Z,14.83
2018-11-29T16:03:56.562Z,13.97
2018-11-29T16:06:26.225Z,15.90
2018-11-29T16:08:56.109Z,14.87
2018-11-29T16:11:25.781Z,31.97
2018-11-29T16:13:55.470Z,101.43
2018-11-29T16:16:25.141Z,39.10
2018-11-29T16:18:54.984Z,35.90
2018-11-29T16:21:24.633Z,56.20
2018-11-29T16:23:54.333Z,28.17
2018-11-29T16:26:24.049Z,19.13
2018-11-29T16:28:53.713Z,8.07
2018-11-29T16:31:23.410Z,7.83
2018-11-29T16:33:53.070Z,7.73
2018-11-29T16:36:22.746Z,6.43
2018-11-29T16:38:52.472Z,21.10
2018-11-29T16:41:22.149Z,8.97
2018-11-29T16:43:51.821Z,12.30
2018-11-29T16:46:21.570Z,30.07
2018-11-29T16:48:51.234Z,12.97
2018-11-29T16:51:20.922Z,6.50
2018-11-29T16:53:50.573Z,8.90
2018-11-29T16:56:20.248Z,6.17
2018-11-29T16:58:49.904Z,6.13
2018-11-29T17:01:19.577Z,7.60
2018-11-29T17:03:49.265Z,6.60
2018-11-29T17:06:18.953Z,6.10
2018-11-29T17:08:48.600Z,6.60
2018-11-29T17:11:18.274Z,6.40
2018-11-29T17:13:48.025Z,7.03
2018-11-29T17:16:17.713Z,7.40
2018-11-29T17:18:47.424Z,13.57
2018-11-29T17:21:17.129Z,72.27
2018-11-29T17:23:46.803Z,31.67
2018-11-29T17:26:16.549Z,32.70
2018-11-29T17:28:46.301Z,17.27
2018-11-29T17:31:16.001Z,18.43
2018-11-29T17:33:45.710Z,18.10
2018-11-29T17:36:15.409Z,23.87
2018-11-29T17:38:45.094Z,34.37
2018-11-29T17:41:14.753Z,24.20
2018-11-29T17:43:44.437Z,24.90
2018-11-29T17:46:14.149Z,24.10
2018-11-29T17:48:43.814Z,21.53
2018-11-29T17:51:13.480Z,18.80
2018-11-29T17:53:43.281Z,17.27
2018-11-29T17:56:12.959Z,15.70
2018-11-29T17:58:42.638Z,15.17
2018-11-29T18:01:12.305Z,11.57
2018-11-29T18:03:41.998Z,10.57
2018-11-29T18:06:11.741Z,14.40
2018-11-29T18:08:41.399Z,14.83
2018-11-29T18:11:11.073Z,14.20
2018-11-29T18:13:41.653Z,14.90
2018-11-29T18:16:11.333Z,14.20
2018-11-29T18:18:41.021Z,12.87
2018-11-29T18:21:11.044Z,13.27
2018-11-29T18:23:40.725Z,14.33
2018-11-29T18:26:10.401Z,13.63
2018-11-29T18:28:40.353Z,13.60
2018-11-29T18:31:10.038Z,13.70
2018-11-29T18:33:39.717Z,14.60
2018-11-29T18:36:14.186Z,13.63
2018-11-29T18:38:39.109Z,14.27
2018-11-29T18:41:08.785Z,14.47
2018-11-29T18:43:38.750Z,14.23
2018-11-29T18:46:09.318Z,14.40
2018-11-29T18:48:39.221Z,13.33
2018-11-29T18:51:08.888Z,14.07
2018-11-29T18:53:38.588Z,14.03
2018-11-29T18:56:08.288Z,12.90
2018-11-29T18:58:37.943Z,14.43
2018-11-29T19:01:07.845Z,14.57
2018-11-29T19:03:37.534Z,13.90
2018-11-29T19:06:07.325Z,13.90
2018-11-29T19:08:36.960Z,12.90
2018-11-29T19:11:06.645Z,11.50
2018-11-29T19:13:36.313Z,11.20
2018-11-29T19:16:06.367Z,11.57
2018-11-29T19:18:36.024Z,12.50
2018-11-29T19:21:05.988Z,12.70
2018-11-29T19:23:35.643Z,13.20
2018-11-29T19:26:06.479Z,13.83
2018-11-29T19:28:36.081Z,12.73
2018-11-29T19:31:05.930Z,13.83
2018-11-29T19:33:35.611Z,14.33
2018-11-29T19:36:05.397Z,13.20
2018-11-29T19:38:35.066Z,13.93
2018-11-29T19:41:04.841Z,13.70
2018-11-29T19:43:34.521Z,14.50
2018-11-29T19:46:04.237Z,12.73
2018-11-29T19:48:33.931Z,11.97
2018-11-29T19:51:03.620Z,14.40
2018-11-29T19:53:33.285Z,14.17
2018-11-29T19:56:03.542Z,14.10
2018-11-29T19:58:33.201Z,13.43
2018-11-29T20:01:02.915Z,13.37
2018-11-29T20:03:32.643Z,13.00
2018-11-29T20:06:02.353Z,12.90
2018-11-29T20:08:32.093Z,13.80
2018-11-29T20:11:02.658Z,13.10
2018-11-29T20:13:32.318Z,13.83
2018-11-29T20:16:02.060Z,13.77
2018-11-29T20:18:31.715Z,14.00
2018-11-29T20:21:01.405Z,13.57
2018-11-29T20:23:31.061Z,11.20
2018-11-29T20:26:00.787Z,11.50
2018-11-29T20:28:30.458Z,11.67
2018-11-29T20:31:00.140Z,9.67
2018-11-29T20:33:29.806Z,10.17
2018-11-29T20:35:59.609Z,8.97
2018-11-29T20:38:29.281Z,10.67
2018-11-29T20:40:58.937Z,9.40
2018-11-29T20:43:28.653Z,10.20
2018-11-29T20:45:58.373Z,13.03
2018-11-29T20:48:29.078Z,14.67
2018-11-29T20:50:59.604Z,12.20
2018-11-29T20:53:36.676Z,10.70
2018-11-29T20:56:08.058Z,11.23
2018-11-29T20:58:37.801Z,16.43
2018-11-29T21:01:08.205Z,15.60
2018-11-29T21:03:37.962Z,17.87
2018-11-29T21:06:09.649Z,18.90
2018-11-29T21:08:39.323Z,15.80
2018-11-29T21:11:09.021Z,14.47
2018-11-29T21:13:40.549Z,11.27
2018-11-29T21:16:10.245Z,10.37
2018-11-29T21:18:40.012Z,8.63
2018-11-29T21:21:09.641Z,10.33
2018-11-29T21:23:39.325Z,11.93
2018-11-29T21:26:08.990Z,9.53
2018-11-29T21:28:38.686Z,8.57
2018-11-29T21:31:08.404Z,8.50
2018-11-29T21:33:38.066Z,8.83
2018-11-29T21:36:07.724Z,8.80
2018-11-29T21:38:37.419Z,8.60
2018-11-29T21:41:07.105Z,8.30
2018-11-29T21:43:36.782Z,8.20
2018-11-29T21:46:06.441Z,8.13
2018-11-29T21:48:36.105Z,7.90
2018-11-29T21:51:05.772Z,7.83
2018-11-29T21:53:35.437Z,8.07
2018-11-29T21:56:05.095Z,7.03
2018-11-29T21:58:34.801Z,7.63
2018-11-29T22:01:04.470Z,8.67
2018-11-29T22:03:34.134Z,7.97
2018-11-29T22:06:03.790Z,7.70
2018-11-29T22:08:33.449Z,7.80
2018-11-29T22:11:03.241Z,7.83
2018-11-29T22:13:32.908Z,8.40
2018-11-29T22:16:03.053Z,8.07
2018-11-29T22:18:33.545Z,7.63
2018-11-29T22:21:04.832Z,7.40
2018-11-29T22:23:35.580Z,7.03
2018-11-29T22:26:08.886Z,7.13
2018-11-29T22:28:38.607Z,7.27
2018-11-29T22:31:08.297Z,7.50
2018-11-29T22:33:37.981Z,7.23
2018-11-29T22:36:07.637Z,7.67
2018-11-29T22:38:37.301Z,7.37
2018-11-29T22:41:06.961Z,7.60
2018-11-29T22:43:36.726Z,7.30
2018-11-29T22:46:06.394Z,7.70
2018-11-29T22:48:36.079Z,7.23
2018-11-29T22:51:05.745Z,7.50
2018-11-29T22:53:35.410Z,7.53
2018-11-29T22:56:05.073Z,6.90
2018-11-29T22:58:34.737Z,7.70
2018-11-29T23:01:08.565Z,8.13
2018-11-29T23:03:38.238Z,7.97
2018-11-29T23:06:07.923Z,8.07
2018-11-29T23:08:37.586Z,7.03
2018-11-29T23:11:07.274Z,7.60
2018-11-29T23:13:36.946Z,7.80
2018-11-29T23:16:06.707Z,8.30
2018-11-29T23:18:36.357Z,8.03
2018-11-29T23:21:06.129Z,7.83
2018-11-29T23:23:35.795Z,7.40
2018-11-29T23:26:05.766Z,7.60
2018-11-29T23:28:35.417Z,8.60
2018-11-29T23:31:05.101Z,8.23
2018-11-29T23:33:34.752Z,8.00
2018-11-29T23:36:04.457Z,7.53
2018-11-29T23:38:34.131Z,7.40
2018-11-29T23:41:03.781Z,8.33
2018-11-29T23:43:33.465Z,7.57
2018-11-29T23:46:03.167Z,7.63
2018-11-29T23:48:32.819Z,8.47
2018-11-29T23:51:02.685Z,8.40
2018-11-29T23:53:32.335Z,8.37
2018-11-29T23:56:02.010Z,7.80
2018-11-29T23:58:31.670Z,7.80
